createdAt,value
2022-08-26T00:02:01.822Z,98402.44
2022-08-26T00:04:29.127Z,98410.72
2022-08-26T00:06:56.877Z,98405.91
2022-08-26T00:09:25.631Z,98401.38
2022-08-26T00:11:54.330Z,98402.56
2022-08-26T00:14:27.113Z,98406.91
2022-08-26T00:16:57.024Z,98404.59
2022-08-26T00:19:24.942Z,98407.59
2022-08-26T00:21:52.202Z,98409.25
2022-08-26T00:24:21.759Z,98410.75
2022-08-26T00:26:49.657Z,98411.91
2022-08-26T00:29:17.953Z,98405.19
2022-08-26T00:31:47.737Z,98401.09
2022-08-26T00:34:16.557Z,98409.03
2022-08-26T00:36:46.709Z,98403.63
2022-08-26T00:39:14.025Z,98396.28
2022-08-26T00:41:41.852Z,98401.28
2022-08-26T00:44:11.024Z,98406.41
2022-08-26T00:46:54.849Z,98399.44
2022-08-26T00:49:37.765Z,98403.44
2022-08-26T00:52:12.114Z,98406.56
2022-08-26T00:54:49.469Z,98405.78
2022-08-26T00:57:20.573Z,98404.66
2022-08-26T00:59:54.280Z,98410.13
2022-08-26T01:02:21.796Z,98410.53
2022-08-26T01:04:55.631Z,98407.69
2022-08-26T01:07:26.222Z,98405.84
2022-08-26T01:09:55.643Z,98408.16
2022-08-26T01:12:26.376Z,98405.81
2022-08-26T01:14:54.696Z,98403.41
2022-08-26T01:17:21.828Z,98406.88
2022-08-26T01:20:04.366Z,98405.78
2022-08-26T01:22:53.550Z,98397.22
2022-08-26T01:25:23.522Z,98403.56
2022-08-26T01:27:52.180Z,98403.16
2022-08-26T01:30:19.999Z,98405.97
2022-08-26T01:32:50.154Z,98404.22
2022-08-26T01:35:17.549Z,98400.31
2022-08-26T01:37:47.975Z,98405.91
2022-08-26T01:40:25.683Z,98407.38
2022-08-26T01:42:54.445Z,98410.47
2022-08-26T01:45:27.510Z,98407.38
2022-08-26T01:47:58.239Z,98412.13
2022-08-26T01:50:35.878Z,98415.66
2022-08-26T01:53:11.353Z,98414.53
2022-08-26T01:55:44.328Z,98407.38
2022-08-26T01:58:18.575Z,98415.31
2022-08-26T02:00:46.796Z,98413.31
2022-08-26T02:03:21.324Z,98416.81
2022-08-26T02:06:09.219Z,98418.34
2022-08-26T02:08:45.605Z,98415.00
2022-08-26T02:11:13.874Z,98422.38
2022-08-26T02:13:53.932Z,98417.28
2022-08-26T02:16:27.358Z,98419.78
2022-08-26T02:18:57.835Z,98414.72
2022-08-26T02:21:25.441Z,98414.25
2022-08-26T02:23:53.592Z,98414.94
2022-08-26T02:26:27.120Z,98412.59
2022-08-26T02:29:12.103Z,98415.00
2022-08-26T02:31:39.855Z,98413.00
2022-08-26T02:34:19.005Z,98415.75
2022-08-26T02:36:46.895Z,98413.28
2022-08-26T02:39:17.996Z,98408.19
2022-08-26T02:41:49.393Z,98411.72
2022-08-26T02:44:16.449Z,98414.84
2022-08-26T02:46:46.899Z,98408.41
2022-08-26T02:49:17.692Z,98403.75
2022-08-26T02:51:45.779Z,98397.44
2022-08-26T02:54:14.169Z,98402.84
2022-08-26T02:56:41.457Z,98397.34
2022-08-26T02:59:09.188Z,98397.00
2022-08-26T03:01:36.874Z,98395.00
2022-08-26T03:04:06.586Z,98395.31
2022-08-26T03:06:33.859Z,98390.84
2022-08-26T03:09:00.941Z,98391.63
2022-08-26T03:11:32.782Z,98388.56
2022-08-26T03:14:01.821Z,98393.72
2022-08-26T03:16:37.880Z,98387.47
2022-08-26T03:19:08.653Z,98399.69
2022-08-26T03:21:37.654Z,98398.84
2022-08-26T03:24:05.697Z,98388.63
2022-08-26T03:26:32.781Z,98396.47
2022-08-26T03:29:18.178Z,98394.81
2022-08-26T03:31:47.059Z,98400.22
2022-08-26T03:34:14.650Z,98395.19
2022-08-26T03:36:42.129Z,98392.84
2022-08-26T03:39:13.630Z,98395.19
2022-08-26T03:41:41.706Z,98392.44
2022-08-26T03:44:09.253Z,98389.53
2022-08-26T03:46:37.278Z,98393.03
2022-08-26T03:49:08.516Z,98390.75
2022-08-26T03:51:38.888Z,98394.69
2022-08-26T03:54:08.330Z,98388.59
2022-08-26T03:56:36.633Z,98391.34
2022-08-26T03:59:05.386Z,98392.13
2022-08-26T04:01:35.490Z,98396.38
2022-08-26T04:04:03.165Z,98398.91
2022-08-26T04:06:42.765Z,98400.88
2022-08-26T04:09:17.937Z,98400.13
2022-08-26T04:11:47.508Z,98396.63
2022-08-26T04:14:23.768Z,98396.28
2022-08-26T04:16:53.221Z,98400.72
2022-08-26T04:19:24.372Z,98394.84
2022-08-26T04:21:53.408Z,98401.88
2022-08-26T04:24:24.820Z,98395.09
2022-08-26T04:26:52.218Z,98394.25
2022-08-26T04:29:24.522Z,98393.00
2022-08-26T04:31:55.466Z,98391.31
2022-08-26T04:34:28.697Z,98397.69
2022-08-26T04:36:57.104Z,98392.66
2022-08-26T04:39:25.576Z,98402.25
2022-08-26T04:41:55.159Z,98397.28
2022-08-26T04:44:24.253Z,98394.34
2022-08-26T04:46:52.243Z,98397.63
2022-08-26T04:49:20.679Z,98392.13
2022-08-26T04:51:48.903Z,98400.84
2022-08-26T04:54:16.307Z,98396.94
2022-08-26T04:56:47.176Z,98402.44
2022-08-26T04:59:18.069Z,98413.69
2022-08-26T05:01:52.484Z,98417.91
2022-08-26T05:04:21.068Z,98421.00
2022-08-26T05:06:49.446Z,98416.25
2022-08-26T05:09:18.554Z,98421.81
2022-08-26T05:11:51.830Z,98425.03
2022-08-26T05:14:22.154Z,98425.84
2022-08-26T05:16:49.773Z,98430.16
2022-08-26T05:19:18.934Z,98423.13
2022-08-26T05:21:48.240Z,98427.41
2022-08-26T05:24:15.805Z,98433.09
2022-08-26T05:26:44.633Z,98426.88
2022-08-26T05:29:12.268Z,98429.84
2022-08-26T05:31:39.628Z,98434.59
2022-08-26T05:34:07.426Z,98437.69
2022-08-26T05:36:36.088Z,98441.38
2022-08-26T05:39:10.372Z,98441.38
2022-08-26T05:41:41.107Z,98444.09
2022-08-26T05:44:13.985Z,98445.28
2022-08-26T05:46:42.501Z,98436.09
2022-08-26T05:49:13.483Z,98444.97
2022-08-26T05:51:45.063Z,98448.28
2022-08-26T05:54:13.979Z,98449.25
2022-08-26T05:56:46.387Z,98449.50
2022-08-26T05:59:15.487Z,98451.66
2022-08-26T06:01:43.739Z,98443.47
2022-08-26T06:04:12.006Z,98454.00
2022-08-26T06:06:41.359Z,98452.16
2022-08-26T06:09:11.164Z,98459.31
2022-08-26T06:11:38.876Z,98462.88
2022-08-26T06:14:09.832Z,98461.63
2022-08-26T06:16:41.288Z,98446.91
2022-08-26T06:19:11.919Z,98448.66
2022-08-26T06:21:42.227Z,98451.13
2022-08-26T06:24:32.776Z,98455.44
2022-08-26T06:27:08.223Z,98450.19
2022-08-26T06:29:36.501Z,98453.09
2022-08-26T06:32:05.403Z,98458.56
2022-08-26T06:34:34.076Z,98455.88
2022-08-26T06:37:02.781Z,98454.00
2022-08-26T06:39:31.790Z,98452.56
2022-08-26T06:42:03.167Z,98461.75
2022-08-26T06:44:33.246Z,98468.56
2022-08-26T06:47:00.057Z,98463.13
2022-08-26T06:49:27.789Z,98464.34
2022-08-26T06:52:01.158Z,98465.59
2022-08-26T06:54:31.433Z,98463.25
2022-08-26T06:56:59.239Z,98464.47
2022-08-26T06:59:26.501Z,98466.53
2022-08-26T07:01:54.561Z,98473.38
2022-08-26T07:04:24.413Z,98469.97
2022-08-26T07:06:53.761Z,98466.50
2022-08-26T07:09:25.174Z,98468.13
2022-08-26T07:11:56.130Z,98460.31
2022-08-26T07:14:24.872Z,98463.16
2022-08-26T07:16:52.300Z,98458.47
2022-08-26T07:19:29.950Z,98461.69
2022-08-26T07:22:02.087Z,98460.16
2022-08-26T07:24:29.492Z,98460.63
2022-08-26T07:27:06.633Z,98461.09
2022-08-26T07:32:02.282Z,98465.56
2022-08-26T07:34:32.065Z,98458.44
2022-08-26T07:37:00.331Z,98455.31
2022-08-26T07:39:28.369Z,98452.97
2022-08-26T07:42:01.380Z,98458.94
2022-08-26T07:44:31.018Z,98456.97
2022-08-26T07:46:59.275Z,98452.59
2022-08-26T07:49:27.198Z,98464.06
2022-08-26T07:51:55.709Z,98462.88
2022-08-26T07:54:26.736Z,98469.59
2022-08-26T07:56:54.565Z,98467.53
2022-08-26T07:59:23.304Z,98473.00
2022-08-26T08:01:50.977Z,98465.00
2022-08-26T08:04:25.587Z,98469.28
2022-08-26T08:06:54.866Z,98471.94
2022-08-26T08:09:23.073Z,98472.63
2022-08-26T08:11:51.301Z,98472.06
2022-08-26T08:14:22.006Z,98467.88
2022-08-26T08:16:51.291Z,98471.13
2022-08-26T08:19:22.039Z,98464.03
2022-08-26T08:21:49.595Z,98470.53
2022-08-26T08:24:21.633Z,98468.00
2022-08-26T08:26:48.736Z,98464.94
2022-08-26T08:29:15.581Z,98464.59
2022-08-26T08:31:56.838Z,98468.84
2022-08-26T08:34:29.047Z,98464.19
2022-08-26T08:36:57.195Z,98465.53
2022-08-26T08:39:26.213Z,98462.47
2022-08-26T08:42:29.239Z,98468.00
2022-08-26T08:45:03.390Z,98467.13
2022-08-26T08:47:42.811Z,98471.44
2022-08-26T08:50:37.063Z,98464.66
2022-08-26T08:53:32.278Z,98462.19
2022-08-26T08:56:28.963Z,98464.22
2022-08-26T08:59:31.386Z,98460.84
2022-08-26T09:02:14.464Z,98463.38
2022-08-26T09:05:15.069Z,98453.94
2022-08-26T09:08:11.606Z,98447.06
2022-08-26T09:10:54.822Z,98459.69
2022-08-26T09:13:25.442Z,98453.69
2022-08-26T09:16:32.206Z,98451.41
2022-08-26T09:19:40.070Z,98444.88
2022-08-26T09:22:09.423Z,98445.00
2022-08-26T09:24:41.926Z,98442.09
2022-08-26T09:27:51.937Z,98443.22
2022-08-26T09:30:35.289Z,98437.00
2022-08-26T09:33:17.461Z,98437.56
2022-08-26T09:35:48.780Z,98445.03
2022-08-26T09:38:33.038Z,98438.00
2022-08-26T09:41:08.273Z,98435.41
2022-08-26T09:43:35.826Z,98428.38
2022-08-26T09:46:25.703Z,98423.78
2022-08-26T09:48:53.198Z,98425.69
2022-08-26T09:51:24.118Z,98410.56
2022-08-26T09:53:56.922Z,98415.16
2022-08-26T09:56:23.749Z,98410.59
2022-08-26T09:58:51.256Z,98403.19
2022-08-26T10:01:24.168Z,98394.22
2022-08-26T10:03:55.596Z,98395.16
2022-08-26T10:06:28.208Z,98391.75
2022-08-26T10:08:59.136Z,98399.31
2022-08-26T10:11:47.740Z,98381.28
2022-08-26T10:14:50.732Z,98386.41
2022-08-26T10:17:41.994Z,98369.44
2022-08-26T10:20:23.664Z,98371.19
2022-08-26T10:23:23.288Z,98374.19
2022-08-26T10:26:05.726Z,98365.06
2022-08-26T10:28:47.173Z,98360.69
2022-08-26T10:31:51.923Z,98366.63
2022-08-26T10:34:21.112Z,98365.25
2022-08-26T10:37:16.269Z,98356.69
2022-08-26T10:40:29.281Z,98365.94
2022-08-26T10:47:28.162Z,98376.38
2022-08-26T10:50:02.927Z,98372.59
2022-08-26T10:52:46.426Z,98364.50
2022-08-26T10:55:43.038Z,98356.22
2022-08-26T10:58:56.265Z,98357.06
2022-08-26T11:02:00.843Z,98358.34
2022-08-26T11:04:48.374Z,98349.13
2022-08-26T11:07:39.688Z,98347.13
2022-08-26T11:10:17.594Z,98338.63
2022-08-26T11:12:49.270Z,98338.91
2022-08-26T11:15:26.083Z,98332.75
2022-08-26T11:17:53.993Z,98330.63
2022-08-26T11:20:46.133Z,98327.44
2022-08-26T11:23:23.246Z,98325.50
2022-08-26T11:25:57.172Z,98330.75
2022-08-26T11:28:48.947Z,98324.56
2022-08-26T11:31:18.942Z,98330.78
2022-08-26T11:33:51.730Z,98329.22
2022-08-26T11:36:43.096Z,98324.78
2022-08-26T11:39:54.788Z,98319.16
2022-08-26T11:42:46.530Z,98314.50
2022-08-26T11:45:27.387Z,98308.25
2022-08-26T11:47:54.927Z,98299.47
2022-08-26T11:50:28.651Z,98300.59
2022-08-26T11:53:04.408Z,98291.34
2022-08-26T11:55:43.364Z,98301.06
2022-08-26T11:58:12.858Z,98290.09
2022-08-26T12:01:06.473Z,98296.69
2022-08-26T12:03:58.452Z,98307.94
2022-08-26T12:06:45.013Z,98315.06
2022-08-26T12:09:22.315Z,98307.78
2022-08-26T12:11:49.630Z,98307.53
2022-08-26T12:14:27.344Z,98308.56
2022-08-26T12:16:54.889Z,98304.94
2022-08-26T12:19:27.339Z,98298.38
2022-08-26T12:22:21.022Z,98288.53
2022-08-26T12:24:55.154Z,98295.50
2022-08-26T12:27:25.899Z,98290.03
2022-08-26T12:30:08.561Z,98290.16
2022-08-26T12:32:57.311Z,98297.44
2022-08-26T12:35:28.642Z,98289.22
2022-08-26T12:37:59.693Z,98291.53
2022-08-26T12:40:47.323Z,98294.41
2022-08-26T12:43:43.943Z,98289.09
2022-08-26T12:46:17.731Z,98285.03
2022-08-26T12:48:49.684Z,98284.38
2022-08-26T12:51:29.309Z,98284.81
2022-08-26T12:53:58.009Z,98298.47
2022-08-26T12:56:39.524Z,98283.13
2022-08-26T12:59:24.548Z,98273.09
2022-08-26T13:01:53.919Z,98273.38
2022-08-26T13:04:37.371Z,98259.38
2022-08-26T13:07:26.755Z,98250.59
2022-08-26T13:09:57.793Z,98242.44
2022-08-26T13:12:37.247Z,98247.41
2022-08-26T13:15:05.929Z,98243.75
2022-08-26T13:17:34.878Z,98245.72
2022-08-26T13:20:04.129Z,98229.78
2022-08-26T13:22:33.334Z,98229.38
2022-08-26T13:25:00.499Z,98227.34
2022-08-26T13:27:27.874Z,98229.63
2022-08-26T13:29:57.020Z,98226.94
2022-08-26T13:32:27.719Z,98213.34
2022-08-26T13:34:56.756Z,98213.28
2022-08-26T13:37:24.388Z,98207.63
2022-08-26T13:40:07.458Z,98214.91
2022-08-26T13:42:34.719Z,98214.13
2022-08-26T13:45:02.352Z,98216.72
2022-08-26T13:47:29.528Z,98213.72
2022-08-26T13:49:56.462Z,98208.13
2022-08-26T13:52:30.251Z,98205.75
2022-08-26T13:55:01.507Z,98212.28
2022-08-26T13:57:29.894Z,98209.25
2022-08-26T13:59:59.310Z,98200.53
2022-08-26T14:02:31.066Z,98201.91
2022-08-26T14:04:58.782Z,98207.41
2022-08-26T14:07:26.646Z,98212.88
2022-08-26T14:09:53.644Z,98215.38
2022-08-26T14:12:20.595Z,98209.88
2022-08-26T14:14:48.094Z,98204.03
2022-08-26T14:17:21.701Z,98216.28
2022-08-26T14:19:51.133Z,98212.50
2022-08-26T14:22:22.267Z,98210.50
2022-08-26T14:24:50.398Z,98205.78
2022-08-26T14:27:17.420Z,98197.69
2022-08-26T14:29:44.652Z,98195.22
2022-08-26T14:32:24.146Z,98193.22
2022-08-26T14:34:51.469Z,98180.31
2022-08-26T14:37:18.777Z,98183.69
2022-08-26T14:39:45.881Z,98180.06
2022-08-26T14:42:16.726Z,98179.13
2022-08-26T14:44:47.318Z,98198.72
2022-08-26T14:47:14.139Z,98209.19
2022-08-26T14:49:40.975Z,98209.63
2022-08-26T14:52:07.772Z,98220.84
2022-08-26T14:54:34.621Z,98259.72
2022-08-26T14:57:07.294Z,98263.03
2022-08-26T14:59:49.977Z,98235.84
2022-08-26T15:02:32.821Z,98233.78
2022-08-26T15:05:02.062Z,98229.47
2022-08-26T15:07:32.535Z,98238.69
2022-08-26T15:09:59.565Z,98244.84
2022-08-26T15:12:27.642Z,98258.63
2022-08-26T15:14:54.505Z,98263.22
2022-08-26T15:17:21.323Z,98282.59
2022-08-26T15:19:48.160Z,98288.72
2022-08-26T15:22:15.023Z,98301.75
2022-08-26T15:24:42.111Z,98292.69
2022-08-26T15:27:09.547Z,98284.22
2022-08-26T15:29:36.701Z,98302.38
2022-08-26T15:32:04.870Z,98305.75
2022-08-26T15:34:31.966Z,98309.56
2022-08-26T15:36:58.792Z,98297.94
2022-08-26T15:39:25.976Z,98313.00
2022-08-26T15:41:52.978Z,98321.88
2022-08-26T15:44:19.908Z,98318.91
2022-08-26T15:46:49.711Z,98312.31
2022-08-26T15:49:18.631Z,98313.44
2022-08-26T15:51:48.067Z,98318.19
2022-08-26T15:54:18.150Z,98317.69
2022-08-26T15:56:45.762Z,98317.47
2022-08-26T15:59:15.011Z,98312.53
2022-08-26T16:01:43.592Z,98315.31
2022-08-26T16:04:12.157Z,98326.13
2022-08-26T16:06:41.384Z,98332.81
2022-08-26T16:09:08.618Z,98324.03
2022-08-26T16:11:36.016Z,98334.28
2022-08-26T16:14:04.617Z,98364.44
2022-08-26T16:16:32.191Z,98378.72
2022-08-26T16:19:01.273Z,98385.88
2022-08-26T16:21:30.702Z,98385.50
2022-08-26T16:23:59.092Z,98404.19
2022-08-26T16:26:38.979Z,98400.72
2022-08-26T16:29:12.243Z,98392.84
2022-08-26T16:31:40.066Z,98390.84
2022-08-26T16:34:09.195Z,98399.19
2022-08-26T16:36:38.631Z,98404.31
2022-08-26T16:39:20.712Z,98392.06
2022-08-26T16:41:50.792Z,98396.38
2022-08-26T16:44:18.031Z,98393.22
2022-08-26T16:46:45.666Z,98388.47
2022-08-26T16:49:12.640Z,98383.75
2022-08-26T16:51:39.644Z,98396.44
2022-08-26T16:54:08.687Z,98395.63
2022-08-26T16:56:37.728Z,98407.94
2022-08-26T16:59:09.644Z,98405.16
2022-08-26T17:01:36.565Z,98396.03
2022-08-26T17:04:04.141Z,98398.00
2022-08-26T17:06:31.028Z,98403.13
2022-08-26T17:08:57.931Z,98425.66
2022-08-26T17:11:24.803Z,98463.16
2022-08-26T17:13:51.833Z,98458.81
2022-08-26T17:16:26.425Z,98444.22
2022-08-26T17:18:56.505Z,98444.63
2022-08-26T17:21:24.825Z,98446.59
2022-08-26T17:23:51.968Z,98436.31
2022-08-26T17:26:19.265Z,98430.81
2022-08-26T17:28:46.107Z,98448.97
2022-08-26T17:31:13.388Z,98445.00
2022-08-26T17:33:40.965Z,98436.31
2022-08-26T17:36:09.193Z,98424.44
2022-08-26T17:38:37.648Z,98424.84
2022-08-26T17:41:13.324Z,98422.88
2022-08-26T17:43:40.788Z,98419.31
2022-08-26T17:46:10.680Z,98409.44
2022-08-26T17:48:39.376Z,98402.75
2022-08-26T17:51:10.576Z,98401.94
2022-08-26T17:53:38.871Z,98394.03
2022-08-26T17:56:13.057Z,98390.47
2022-08-26T17:58:41.367Z,98387.31
2022-08-26T18:01:18.827Z,98385.97
2022-08-26T18:03:46.005Z,98384.66
2022-08-26T18:06:14.528Z,98380.72
2022-08-26T18:08:42.387Z,98385.81
2022-08-26T18:11:20.864Z,98382.63
2022-08-26T18:13:51.122Z,98388.19
2022-08-26T18:16:19.649Z,98396.50
2022-08-26T18:18:48.962Z,98409.88
2022-08-26T18:21:23.444Z,98415.31
2022-08-26T18:23:51.878Z,98433.88
2022-08-26T18:26:31.373Z,98445.66
2022-08-26T18:29:00.071Z,98433.00
2022-08-26T18:31:28.548Z,98420.22
2022-08-26T18:33:56.063Z,98418.94
2022-08-26T18:36:29.972Z,98417.38
2022-08-26T18:38:58.299Z,98425.03
2022-08-26T18:41:33.229Z,98440.81
2022-08-26T18:44:00.312Z,98454.50
2022-08-26T18:46:30.487Z,98439.84
2022-08-26T18:48:58.067Z,98452.09
2022-08-26T18:51:32.842Z,98453.41
2022-08-26T18:54:04.622Z,98466.91
2022-08-26T18:56:33.641Z,98477.94
2022-08-26T18:59:01.481Z,98470.09
2022-08-26T19:01:30.993Z,98473.28
2022-08-26T19:04:01.231Z,98462.31
2022-08-26T19:06:32.687Z,98475.69
2022-08-26T19:09:00.318Z,98468.13
2022-08-26T19:11:32.081Z,98473.31
2022-08-26T19:14:07.624Z,98475.16
2022-08-26T19:16:36.764Z,98470.31
2022-08-26T19:19:04.359Z,98469.13
2022-08-26T19:21:33.648Z,98468.69
2022-08-26T19:24:03.086Z,98463.81
2022-08-26T19:26:31.779Z,98463.03
2022-08-26T19:29:00.140Z,98472.97
2022-08-26T19:31:27.525Z,98469.31
2022-08-26T19:33:54.504Z,98487.91
2022-08-26T19:36:25.335Z,98466.88
2022-08-26T19:38:53.371Z,98472.13
2022-08-26T19:41:36.507Z,98467.25
2022-08-26T19:44:12.770Z,98473.75
2022-08-26T19:46:40.484Z,98476.91
2022-08-26T19:49:07.410Z,98487.44
2022-08-26T19:51:36.598Z,98489.19
2022-08-26T19:54:04.570Z,98486.22
2022-08-26T19:56:32.002Z,98487.16
2022-08-26T19:58:58.843Z,98481.78
2022-08-26T20:01:25.895Z,98481.03
2022-08-26T20:03:53.035Z,98486.94
2022-08-26T20:06:21.097Z,98486.41
2022-08-26T20:08:50.639Z,98485.59
2022-08-26T20:11:18.604Z,98487.59
2022-08-26T20:13:47.602Z,98481.19
2022-08-26T20:16:15.979Z,98494.28
2022-08-26T20:19:03.255Z,98493.78
2022-08-26T20:21:35.693Z,98485.13
2022-08-26T20:24:10.926Z,98486.38
2022-08-26T20:26:41.550Z,98485.94
2022-08-26T20:29:11.665Z,98485.94
2022-08-26T20:31:39.558Z,98491.31
2022-08-26T20:34:07.139Z,98492.81
2022-08-26T20:36:34.900Z,98492.81
2022-08-26T20:39:01.856Z,98498.94
2022-08-26T20:41:29.002Z,98496.09
2022-08-26T20:43:57.181Z,98507.91
2022-08-26T20:46:25.561Z,98512.56
2022-08-26T20:48:54.161Z,98517.44
2022-08-26T20:51:23.486Z,98515.91
2022-08-26T20:53:51.194Z,98508.81
2022-08-26T20:56:23.705Z,98507.22
2022-08-26T20:58:58.458Z,98509.81
2022-08-26T21:01:34.047Z,98509.41
2022-08-26T21:04:05.158Z,98508.66
2022-08-26T21:06:33.897Z,98506.63
2022-08-26T21:09:02.924Z,98507.47
2022-08-26T21:11:30.817Z,98503.59
2022-08-26T21:14:07.074Z,98507.63
2022-08-26T21:16:44.109Z,98510.38
2022-08-26T21:19:15.325Z,98514.72
2022-08-26T21:21:44.363Z,98514.50
2022-08-26T21:24:12.171Z,98511.03
2022-08-26T21:26:39.899Z,98513.91
2022-08-26T21:29:09.925Z,98512.41
2022-08-26T21:31:41.030Z,98517.19
2022-08-26T21:34:12.105Z,98515.50
2022-08-26T21:36:39.017Z,98521.63
2022-08-26T21:39:10.716Z,98522.69
2022-08-26T21:41:39.233Z,98516.38
2022-08-26T21:44:06.654Z,98519.72
2022-08-26T21:46:36.244Z,98516.72
2022-08-26T21:49:07.386Z,98521.63
2022-08-26T21:51:38.567Z,98525.13
2022-08-26T21:54:11.028Z,98523.97
2022-08-26T21:56:46.581Z,98523.09
2022-08-26T21:59:16.758Z,98525.44
2022-08-26T22:01:43.755Z,98517.84
2022-08-26T22:04:10.879Z,98523.63
2022-08-26T22:06:46.868Z,98524.47
2022-08-26T22:09:17.884Z,98522.81
2022-08-26T22:11:45.783Z,98547.34
2022-08-26T22:14:14.283Z,98555.75
2022-08-26T22:16:41.227Z,98561.97
2022-08-26T22:19:13.734Z,98565.50
2022-08-26T22:21:45.199Z,98566.25
2022-08-26T22:24:12.432Z,98569.50
2022-08-26T22:26:39.417Z,98569.59
2022-08-26T22:29:07.507Z,98563.09
2022-08-26T22:31:37.505Z,98572.13
2022-08-26T22:34:12.572Z,98569.38
2022-08-26T22:36:44.279Z,98571.09
2022-08-26T22:39:19.673Z,98585.75
2022-08-26T22:41:48.302Z,98587.63
2022-08-26T22:44:16.795Z,98589.50
2022-08-26T22:46:45.083Z,98589.53
2022-08-26T22:49:17.071Z,98591.34
2022-08-26T22:51:45.958Z,98589.09
2022-08-26T22:54:14.695Z,98594.69
2022-08-26T22:56:43.670Z,98590.47
2022-08-26T22:59:12.264Z,98590.16
2022-08-26T23:01:42.316Z,98585.69
2022-08-26T23:04:10.898Z,98582.84
2022-08-26T23:06:41.527Z,98575.28
2022-08-26T23:09:09.527Z,98569.78
2022-08-26T23:11:39.858Z,98570.38
2022-08-26T23:14:09.607Z,98574.06
2022-08-26T23:16:41.517Z,98565.91
2022-08-26T23:19:14.462Z,98575.13
2022-08-26T23:21:41.764Z,98576.06
2022-08-26T23:24:09.987Z,98573.09
2022-08-26T23:26:37.730Z,98563.75
2022-08-26T23:29:07.491Z,98551.56
2022-08-26T23:31:36.630Z,98551.13
2022-08-26T23:34:22.579Z,98540.13
2022-08-26T23:36:52.599Z,98544.47
2022-08-26T23:39:20.957Z,98547.94
2022-08-26T23:41:47.853Z,98549.53
2022-08-26T23:44:19.621Z,98561.56
2022-08-26T23:46:46.831Z,98566.16
2022-08-26T23:49:14.718Z,98561.06
2022-08-26T23:52:00.058Z,98558.06
2022-08-26T23:54:27.362Z,98559.47
2022-08-26T23:56:54.299Z,98551.72
2022-08-26T23:59:21.279Z,98556.94
